Terminal Aerodrome Forecast
Issued by NWS

Home | Current Version | Previous Version | Text Only | Print | Product List | Glossary On
Versions: 1 2 3 4 5 6 7 8 9 10 11 12 13
000
FTUS45 KPSR 242300
TAFBLH
TAF
KBLH 242320Z 2500/2524 17005KT P6SM SKC
     FM250200 22005KT P6SM SKC
     FM250800 VRB05KT P6SM FEW100
      TEMPO 2511/2515 34004KT
     FM251500 16007KT P6SM SCT100=

USA.gov is the U.S. government's official web portal to all federal, state and local government web resources and services.